22. Mai 2022

Uhrzeit Code Wetter Temp. Sichtweite Wolken Wind METAR/SPECI
09:30
M
21 °C 10 km+ 1.300 ft Var   Var 3 kt METAR LFMP 220730Z AUTO VRB03KT 9999 OVC013 21/17 Q1013 BECMG FEW009
09:00
M
20 °C 10 km+ 1.300 ft Var   Var 2 kt METAR LFMP 220700Z AUTO VRB02KT 9999 OVC013 20/17 Q1013 TEMPO 4000 BR BECMG FEW009
08:30
M
20 °C 10 km+ 1.300 ft 310°   310° 4 kt METAR LFMP 220630Z AUTO 31004KT 280V350 9999 OVC013 20/17 Q1013 TEMPO 4000 BR BECMG FEW009
08:00
M
19 °C 10 km+ 1.200 ft 290°   290° 3 kt METAR LFMP 220600Z AUTO 29003KT 260V320 9999 OVC012 19/18 Q1013 TEMPO 4000 BR BKN008
07:30
M
19 °C 10 km+ 1.200 ft Var   Var 2 kt METAR LFMP 220530Z AUTO VRB02KT 9999 OVC012 19/17 Q1013 TEMPO 4000 BR BKN008
07:00
M
18 °C 10 km+ 1.300 ft 350°   350° 2 kt METAR LFMP 220500Z AUTO 35002KT 9999 OVC013 18/17 Q1013 TEMPO 4000 BR BKN008
06:30
M
18 °C 10 km+ 1.100 ft 320°   320° 2 kt METAR LFMP 220430Z AUTO 32002KT 9999 OVC011 18/18 Q1013 TEMPO 4000 BR BKN008
06:00
I
18 °C 10 km+ 900 ft Var   Var 2 kt METAR LFMP 220400Z AUTO VRB02KT 9999 FEW002 OVC009 18/17 Q1013 TEMPO 4000 BR
05:30
I
18 °C 7 km 900 ft Var   Var 3 kt METAR LFMP 220330Z AUTO VRB03KT 7000 FEW003 OVC009 18/17 Q1013 TEMPO 4000 BR
05:00
I
17 °C 10 km+ 800 ft 230°   230° 3 kt METAR LFMP 220300Z AUTO 23003KT 9999 BKN008 OVC014 17/16 Q1014 TEMPO 4000 BR
04:30
I
17 °C 10 km+ 800 ft 240°   240° 3 kt METAR LFMP 220230Z AUTO 24003KT 9999 BKN008 17/15 Q1014
04:00
V
17 °C 10 km+ - 230°   230° 2 kt METAR LFMP 220200Z AUTO 23002KT 9999 FEW008 17/16 Q1014
03:30
V
18 °C 10 km+ - 300°   300° 2 kt METAR LFMP 220130Z AUTO 30002KT CAVOK 18/17 Q1014
03:00
V
18 °C 10 km+ - 300°   300° 2 kt METAR LFMP 220100Z AUTO 30002KT CAVOK 18/17 Q1014
02:30
V
18 °C 10 km+ - Var   Var 2 kt METAR LFMP 220030Z AUTO VRB02KT CAVOK 18/17 Q1015
02:00
V
18 °C 10 km+ - 280°   280° 2 kt METAR LFMP 220000Z AUTO 28002KT CAVOK 18/17 Q1015
01:30
V
18 °C 10 km+ - Var   Var 3 kt METAR LFMP 212330Z AUTO VRB03KT CAVOK 18/17 Q1015
01:00
V
18 °C 10 km+ - 240°   240° 3 kt METAR LFMP 212300Z AUTO 24003KT CAVOK 18/17 Q1015
00:30
V
19 °C 10 km+ - Var   000° 0 kt METAR LFMP 212230Z AUTO 00000KT CAVOK 19/17 Q1016
00:00
V
20 °C 10 km+ - 040°   040° 2 kt METAR LFMP 212200Z AUTO 04002KT CAVOK 20/18 Q1016

21. Mai 2022

Uhrzeit Code Wetter Temp. Sichtweite Wolken Wind METAR/SPECI
23:30
V
20 °C 10 km+ - 030°   030° 3 kt METAR LFMP 212130Z AUTO 03003KT CAVOK 20/18 Q1016 TEMPO BKN010 BECMG 09010KT
23:00
V
20 °C 10 km+ - 050°   050° 2 kt METAR LFMP 212100Z AUTO 05002KT CAVOK 20/18 Q1017 NOSIG
22:30
V
20 °C 10 km+ - Var   Var 2 kt METAR LFMP 212030Z AUTO VRB02KT CAVOK 20/18 Q1017 NOSIG
22:00
V
20 °C 10 km+ - 030°   030° 5 kt METAR LFMP 212000Z AUTO 03005KT CAVOK 20/18 Q1016 BECMG 09010KT
21:30
V
21 °C 10 km+ - 050°   050° 4 kt METAR LFMP 211930Z AUTO 05004KT CAVOK 21/18 Q1016 NOSIG
21:00
V
22 °C 10 km+ - 050°   050° 5 kt METAR LFMP 211900Z AUTO 05005KT CAVOK 22/18 Q1016 NOSIG
20:30
V
23 °C 10 km+ - Var   Var 3 kt METAR LFMP 211830Z AUTO VRB03KT CAVOK 23/18 Q1016 NOSIG
20:00
V
23 °C 10 km+ - 060°   060° 4 kt METAR LFMP 211800Z AUTO 06004KT CAVOK 23/18 Q1016 NOSIG
19:30
V
23 °C 10 km+ - Var   Var 2 kt METAR LFMP 211730Z AUTO VRB02KT CAVOK 23/18 Q1016 NOSIG
19:00
V
23 °C 10 km+ - 110°   110° 3 kt METAR LFMP 211700Z AUTO 11003KT 080V160 CAVOK 23/18 Q1016 NOSIG
18:30
V
24 °C 10 km+ - 110°   110° 4 kt METAR LFMP 211630Z AUTO 11004KT 070V150 CAVOK 24/18 Q1017 NOSIG
18:00
V
25 °C 10 km+ - Var   Var 2 kt METAR LFMP 211600Z AUTO VRB02KT CAVOK 25/17 Q1017 NOSIG
17:30
V
25 °C 10 km+ - 070°   070° 5 kt METAR LFMP 211530Z AUTO 07005KT 020V110 CAVOK 25/17 Q1017 NOSIG
17:00
V
25 °C 10 km+ - 080°   080° 5 kt METAR LFMP 211500Z AUTO 08005KT 040V170 CAVOK 25/18 Q1018 NOSIG
16:30
V
26 °C 10 km+ - 090°   090° 7 kt METAR LFMP 211430Z AUTO 09007KT 040V140 CAVOK 26/18 Q1018 NOSIG
16:00
V
26 °C 10 km+ - 080°   080° 7 kt METAR LFMP 211400Z AUTO 08007KT 030V130 CAVOK 26/18 Q1018 NOSIG
15:30
V
26 °C 10 km+ - 090°   090° 8 kt METAR LFMP 211330Z AUTO 09008KT 050V130 CAVOK 26/18 Q1018 NOSIG
15:00
V
26 °C 10 km+ - 090°   090° 7 kt METAR LFMP 211300Z AUTO 09007KT 030V190 CAVOK 26/18 Q1019 NOSIG
14:30
V
26 °C 10 km+ - 060°   060° 7 kt METAR LFMP 211230Z AUTO 06007KT 020V100 CAVOK 26/17 Q1019 NOSIG
14:00
V
25 °C 10 km+ - 100°   100° 8 kt METAR LFMP 211200Z AUTO 10008KT 060V140 CAVOK 25/18 Q1019 NOSIG
13:30
V
25 °C 10 km+ - 100°   100° 8 kt METAR LFMP 211130Z AUTO 10008KT 050V140 9999 FEW024 25/18 Q1020 NOSIG
13:00
V
25 °C 10 km+ - 080°   080° 10 kt METAR LFMP 211100Z AUTO 08010KT 040V120 9999 FEW024 25/18 Q1020 NOSIG
12:30
V
26 °C 10 km+ - 070°   070° 8 kt METAR LFMP 211030Z AUTO 07008KT 020V120 9999 FEW024 26/18 Q1020 NOSIG
12:00
V
25 °C 10 km+ - 080°   080° 6 kt METAR LFMP 211000Z AUTO 08006KT 020V140 9999 FEW023 25/18 Q1020 NOSIG
11:30
V
24 °C 10 km+ - 050°   050° 6 kt METAR LFMP 210930Z AUTO 05006KT 360V090 9999 SCT023 24/18 Q1021 NOSIG
11:00
V
25 °C 10 km+ - 080°   080° 5 kt METAR LFMP 210900Z AUTO 08005KT 030V150 9999 FEW008 SCT022 25/17 Q1021 NOSIG
10:30
V
24 °C 10 km+ - Var   Var 3 kt METAR LFMP 210830Z AUTO VRB03KT 9999 FEW021 24/18 Q1021 NOSIG
10:00
V
23 °C 10 km+ - 070°   070° 3 kt METAR LFMP 210800Z AUTO 07003KT 030V110 9999 FEW019 23/17 Q1021 NOSIG
09:30
V
23 °C 10 km+ - 070°   070° 3 kt METAR LFMP 210730Z AUTO 07003KT 010V120 9999 FEW017 23/17 Q1022 NOSIG
09:00
V
22 °C 10 km+ - Var   Var 2 kt METAR LFMP 210700Z AUTO VRB02KT CAVOK 22/17 Q1022 NOSIG
08:30
V
20 °C 10 km+ - Var   Var 2 kt METAR LFMP 210630Z AUTO VRB02KT CAVOK 20/16 Q1022 NOSIG
08:00
V
18 °C 10 km+ - Var   Var 1 kt METAR LFMP 210600Z AUTO VRB01KT CAVOK 18/16 Q1022 NOSIG
07:30
V
17 °C 10 km+ - 230°   230° 2 kt METAR LFMP 210530Z AUTO 23002KT CAVOK 17/16 Q1022 BECMG 09010KT
07:00
V
16 °C 10 km+ - Var   000° 0 kt METAR LFMP 210500Z AUTO 00000KT CAVOK 16/15 Q1022 NOSIG
06:30
V
16 °C 10 km+ - 220°   220° 2 kt METAR LFMP 210430Z AUTO 22002KT CAVOK 16/14 Q1022 NOSIG
06:00
V
16 °C 10 km+ - Var   000° 0 kt METAR LFMP 210400Z AUTO 00000KT CAVOK 16/14 Q1022 NOSIG
05:30
V
16 °C 10 km+ - Var   Var 1 kt METAR LFMP 210330Z AUTO VRB01KT CAVOK 16/14 Q1022 NOSIG
05:00
V
16 °C 10 km+ - 230°   230° 2 kt METAR LFMP 210300Z AUTO 23002KT CAVOK 16/15 Q1022 NOSIG
04:30
V
17 °C 10 km+ - 240°   240° 3 kt METAR LFMP 210230Z AUTO 24003KT CAVOK 17/15 Q1022
04:00
V
17 °C 10 km+ - 240°   240° 3 kt METAR LFMP 210200Z AUTO 24003KT CAVOK 17/15 Q1022
03:30
V
17 °C 10 km+ - 230°   230° 4 kt METAR LFMP 210130Z AUTO 23004KT CAVOK 17/16 Q1023
03:00
V
17 °C 10 km+ - 250°   250° 3 kt METAR LFMP 210100Z AUTO 25003KT CAVOK 17/16 Q1023
02:30
V
18 °C 10 km+ - 230°   230° 4 kt METAR LFMP 210030Z AUTO 23004KT CAVOK 18/16 Q1023
02:00
V
18 °C 10 km+ - 260°   260° 3 kt METAR LFMP 210000Z AUTO 26003KT CAVOK 18/16 Q1023
01:30
V
18 °C 10 km+ - 250°   250° 3 kt METAR LFMP 202330Z AUTO 25003KT CAVOK 18/16 Q1023
01:00
V
19 °C 10 km+ - 210°   210° 2 kt METAR LFMP 202300Z AUTO 21002KT CAVOK 19/17 Q1024
00:30
V
19 °C 10 km+ - Var   Var 3 kt METAR LFMP 202230Z AUTO VRB03KT CAVOK 19/17 Q1024
00:00
V
20 °C 10 km+ - 260°   260° 3 kt METAR LFMP 202200Z AUTO 26003KT CAVOK 20/17 Q1024

20. Mai 2022

Uhrzeit Code Wetter Temp. Sichtweite Wolken Wind METAR/SPECI
23:30
V
20 °C 10 km+ - 260°   260° 3 kt METAR LFMP 202130Z AUTO 26003KT 220V320 CAVOK 20/17 Q1024 NOSIG
23:00
V
20 °C 10 km+ - 280°   280° 4 kt METAR LFMP 202100Z AUTO 28004KT 250V310 CAVOK 20/17 Q1024 NOSIG
22:30
V
20 °C 10 km+ - 140°   140° 2 kt METAR LFMP 202030Z AUTO 14002KT CAVOK 20/17 Q1023 NOSIG
22:00
V
21 °C 10 km+ - 100°   100° 3 kt METAR LFMP 202000Z AUTO 10003KT CAVOK 21/17 Q1023 NOSIG
21:30
V
21 °C 10 km+ - 090°   090° 4 kt METAR LFMP 201930Z AUTO 09004KT CAVOK 21/17 Q1023 NOSIG
21:00
V
22 °C 10 km+ - 050°   050° 6 kt METAR LFMP 201900Z AUTO 05006KT CAVOK 22/17 Q1022 NOSIG
20:30
V
23 °C 10 km+ - 040°   040° 8 kt METAR LFMP 201830Z AUTO 04008KT 010V070 CAVOK 23/17 Q1022 NOSIG
20:00
V
23 °C 10 km+ - 040°   040° 11 kt METAR LFMP 201800Z AUTO 04011KT CAVOK 23/17 Q1022 NOSIG
19:30
V
24 °C 10 km+ - 040°   040° 13 kt METAR LFMP 201730Z AUTO 04013KT CAVOK 24/17 Q1021 NOSIG
19:00
V
25 °C 10 km+ - 040°   040° 15 kt METAR LFMP 201700Z AUTO 04015KT CAVOK 25/17 Q1021 NOSIG
18:30
V
26 °C 10 km+ - 040°   040° 17 kt METAR LFMP 201630Z AUTO 04017KT CAVOK 26/18 Q1021 NOSIG
18:00
V
26 °C 10 km+ - 040°   040° 15 kt METAR LFMP 201600Z AUTO 04015KT CAVOK 26/18 Q1021 NOSIG
17:30
V
27 °C 10 km+ - 040°   040° 17 kt METAR LFMP 201530Z AUTO 04017KT CAVOK 27/18 Q1021 NOSIG
17:00
V
28 °C 10 km+ - 020°   020° 16 kt METAR LFMP 201500Z AUTO 02016KT CAVOK 28/18 Q1020 NOSIG
16:30
V
29 °C 10 km+ - 030°   030° 17 kt METAR LFMP 201430Z AUTO 03017KT CAVOK 29/17 Q1020 NOSIG
16:00
V
32 °C 10 km+ - 030°   030° 10 20 kt METAR LFMP 201400Z AUTO 03010G20KT 360V060 CAVOK 32/17 Q1020 NOSIG
15:30
V
32 °C 10 km+ - 060°   060° 7 kt METAR LFMP 201330Z AUTO 06007KT 020V100 CAVOK 32/16 Q1020 NOSIG
15:00
V
31 °C 10 km+ - 070°   070° 7 kt METAR LFMP 201300Z AUTO 07007KT 040V110 CAVOK 31/16 Q1020 NOSIG
14:30
V
31 °C 10 km+ - 060°   060° 8 kt METAR LFMP 201230Z AUTO 06008KT 040V100 CAVOK 31/15 Q1020 NOSIG
14:00
V
31 °C 10 km+ - 050°   050° 10 kt METAR LFMP 201200Z AUTO 05010KT CAVOK 31/15 Q1020 NOSIG
13:30
V
30 °C 10 km+ - 060°   060° 9 kt METAR LFMP 201130Z AUTO 06009KT 010V090 CAVOK 30/16 Q1021 NOSIG
13:00
V
30 °C 10 km+ - 060°   060° 6 kt METAR LFMP 201100Z AUTO 06006KT 010V120 CAVOK 30/15 Q1021 NOSIG
12:30
V
29 °C 10 km+ - 030°   030° 5 kt METAR LFMP 201030Z AUTO 03005KT 300V090 CAVOK 29/15 Q1021 NOSIG
12:00
V
28 °C 10 km+ - 030°   030° 6 kt METAR LFMP 201000Z AUTO 03006KT 330V060 CAVOK 28/16 Q1022 NOSIG
11:30
V
27 °C 10 km+ - 010°   010° 8 kt METAR LFMP 200930Z AUTO 01008KT 320V060 CAVOK 27/16 Q1022 NOSIG
11:00
V
26 °C 10 km+ - 010°   010° 9 kt METAR LFMP 200900Z AUTO 01009KT 340V040 CAVOK 26/16 Q1022 NOSIG
10:30
V
24 °C 10 km+ - 030°   030° 8 kt METAR LFMP 200830Z AUTO 03008KT 340V060 CAVOK 24/17 Q1022 NOSIG
10:00
V
24 °C 10 km+ - 030°   030° 9 kt METAR LFMP 200800Z AUTO 03009KT CAVOK 24/17 Q1022 NOSIG
09:30
V
23 °C 10 km+ - 030°   030° 7 kt METAR LFMP 200730Z AUTO 03007KT 360V070 CAVOK 23/17 Q1023 NOSIG
09:00
V
22 °C 10 km+ - 020°   020° 4 kt METAR LFMP 200700Z AUTO 02004KT 330V060 CAVOK 22/17 Q1023 TEMPO BKN005
Ältere Daten

Laden Sie unsere App herunter

Einfacher Zugriff auf das gesamte Flugwetter auf Ihrem Mobiltelefon und Tablet.
Mit vielen Funktionen, die auf der Website nicht verfügbar sind, wie Offline-Unterstützung und eine persönliche Flughafenliste.

Wir und Dritte verfolgen dein Internetverhalten auf unserer Website mit Cookies. Wenn du fortfährst, gehen wir davon aus, dass du mit unserer Cookie-Richtlinie einverstanden bist. Mehr erfahren